createdAt,value
2017-07-29T00:04:31.605Z,85.80
2017-07-29T00:09:49.541Z,85.40
2017-07-29T00:12:21.525Z,85.40
2017-07-29T00:14:53.084Z,84.90
2017-07-29T00:20:14.286Z,83.60
2017-07-29T00:22:45.473Z,83.60
2017-07-29T00:25:32.659Z,82.70
2017-07-29T00:28:05.605Z,82.10
2017-07-29T00:30:38.044Z,81.60
2017-07-29T00:39:02.715Z,79.10
2017-07-29T00:41:43.080Z,79.10
2017-07-29T00:44:14.878Z,78.50
2017-07-29T00:46:59.992Z,77.90
2017-07-29T00:49:52.347Z,77.10
2017-07-29T00:52:28.087Z,76.00
2017-07-29T00:55:00.518Z,76.60
2017-07-29T01:00:35.611Z,75.60
2017-07-29T01:03:08.432Z,75.50
2017-07-29T01:08:41.288Z,75.20
2017-07-29T01:11:13.865Z,75.50
2017-07-29T01:16:35.504Z,76.00
2017-07-29T01:19:09.310Z,75.50
2017-07-29T01:21:57.760Z,76.10
2017-07-29T01:27:46.046Z,77.60
2017-07-29T01:30:17.809Z,77.60
2017-07-29T01:32:48.652Z,77.60
2017-07-29T01:35:20.213Z,77.00
2017-07-29T01:38:05.987Z,76.60
2017-07-29T01:40:37.629Z,76.00
2017-07-29T01:43:08.683Z,75.30
2017-07-29T01:48:31.257Z,74.60
2017-07-29T01:51:02.825Z,73.30
2017-07-29T01:53:34.464Z,74.50
2017-07-29T01:59:04.986Z,75.50
2017-07-29T02:01:37.866Z,75.40
2017-07-29T02:04:23.930Z,75.40
2017-07-29T02:07:14.685Z,75.20
2017-07-29T02:09:49.526Z,72.90
2017-07-29T02:12:26.928Z,72.40
2017-07-29T02:17:45.301Z,70.10
2017-07-29T02:20:16.982Z,70.10
2017-07-29T02:22:48.665Z,70.10
2017-07-29T02:25:20.484Z,71.10
2017-07-29T02:27:53.464Z,71.00
2017-07-29T02:30:25.868Z,70.00
2017-07-29T02:35:55.272Z,68.30
2017-07-29T02:41:24.054Z,67.70
2017-07-29T02:43:56.344Z,66.00
2017-07-29T02:46:28.573Z,65.80
2017-07-29T02:51:57.662Z,65.20
2017-07-29T02:54:29.687Z,65.40
2017-07-29T02:57:02.596Z,65.70
2017-07-29T03:02:25.702Z,64.80
2017-07-29T03:04:57.050Z,64.60
2017-07-29T03:10:33.903Z,64.60
2017-07-29T03:13:07.969Z,66.30
2017-07-29T03:15:52.405Z,65.70
2017-07-29T03:18:38.881Z,66.40
2017-07-29T03:21:22.328Z,65.80
2017-07-29T03:24:10.640Z,65.80
2017-07-29T03:26:42.933Z,65.70
2017-07-29T03:32:02.480Z,63.00
2017-07-29T03:40:28.379Z,61.50
2017-07-29T03:43:11.127Z,61.60
2017-07-29T03:46:13.254Z,61.10
2017-07-29T03:48:57.485Z,60.50
2017-07-29T03:51:36.839Z,60.20
2017-07-29T03:54:17.981Z,59.80
2017-07-29T03:57:00.237Z,59.50
2017-07-29T03:59:48.829Z,59.20
2017-07-29T04:02:33.974Z,58.60
2017-07-29T04:07:59.525Z,57.70
2017-07-29T04:13:23.132Z,56.30
2017-07-29T04:16:07.997Z,57.00
2017-07-29T12:24:03.053Z,69.70
2017-07-29T12:26:34.083Z,69.80
2017-07-29T12:29:04.353Z,69.80
2017-07-29T12:31:34.651Z,70.10
2017-07-29T12:34:05.677Z,71.70
2017-07-29T12:36:36.061Z,72.30
2017-07-29T12:39:07.864Z,72.30
2017-07-29T12:41:38.969Z,73.00
2017-07-29T12:44:09.194Z,73.00
2017-07-29T12:46:39.477Z,73.50
2017-07-29T12:49:09.328Z,73.80
2017-07-29T12:51:40.134Z,74.00
2017-07-29T12:54:11.936Z,74.10
2017-07-29T12:56:43.753Z,73.80
2017-07-29T12:59:15.264Z,74.80
2017-07-29T13:01:45.540Z,74.40
2017-07-29T13:04:15.839Z,73.60
2017-07-29T13:06:45.867Z,73.00
2017-07-29T13:09:17.053Z,70.90
2017-07-29T13:11:47.238Z,70.80
2017-07-29T13:14:18.508Z,72.10
2017-07-29T13:16:48.709Z,71.70
2017-07-29T13:19:20.098Z,71.00
2017-07-29T13:21:50.417Z,70.50
2017-07-29T13:24:20.845Z,70.30
2017-07-29T13:26:51.281Z,69.30
2017-07-29T13:29:21.675Z,69.60
2017-07-29T13:31:52.833Z,72.20
2017-07-29T13:34:25.016Z,72.10
2017-07-29T13:36:55.425Z,72.30
2017-07-29T13:39:26.301Z,73.40
2017-07-29T13:41:56.821Z,73.30
2017-07-29T13:44:27.067Z,73.30
2017-07-29T13:46:57.444Z,73.60
2017-07-29T13:49:27.713Z,73.90
2017-07-29T13:51:57.931Z,74.10
2017-07-29T13:54:28.533Z,74.30
2017-07-29T13:56:59.231Z,74.70
2017-07-29T13:59:29.580Z,75.00
2017-07-29T14:02:01.177Z,76.00
2017-07-29T14:04:34.423Z,75.80
2017-07-29T14:07:07.124Z,76.10
2017-07-29T14:09:40.080Z,76.30
2017-07-29T14:12:12.935Z,76.40
2017-07-29T14:14:43.071Z,76.50
2017-07-29T14:17:13.495Z,76.70
2017-07-29T14:19:43.924Z,77.00
2017-07-29T14:22:14.448Z,76.80
2017-07-29T14:24:44.871Z,77.00
2017-07-29T14:27:15.428Z,77.00
2017-07-29T14:29:46.089Z,76.70
2017-07-29T14:32:20.936Z,76.60
2017-07-29T14:34:53.565Z,76.60
2017-07-29T14:37:26.540Z,76.60
2017-07-29T14:39:59.385Z,76.50
2017-07-29T14:42:30.588Z,76.50
2017-07-29T14:45:01.248Z,76.40
2017-07-29T14:47:34.190Z,76.20
2017-07-29T14:50:07.569Z,76.40
2017-07-29T14:52:40.331Z,76.60
2017-07-29T14:55:10.779Z,76.60
2017-07-29T14:57:41.314Z,76.70
2017-07-29T15:00:11.829Z,76.80
2017-07-29T15:02:42.572Z,76.90
2017-07-29T15:05:13.110Z,77.20
2017-07-29T15:07:44.409Z,77.10
2017-07-29T15:10:15.801Z,77.20
2017-07-29T15:12:47.935Z,77.30
2017-07-29T15:15:20.595Z,77.30
2017-07-29T15:17:53.623Z,77.60
2017-07-29T15:20:25.054Z,77.40
2017-07-29T15:23:02.662Z,77.60
2017-07-29T15:25:36.940Z,77.90
2017-07-29T15:28:06.824Z,78.40
2017-07-29T15:30:37.076Z,78.70
2017-07-29T15:33:07.375Z,79.00
2017-07-29T15:35:37.771Z,79.10
2017-07-29T15:38:08.220Z,79.20
2017-07-29T15:40:39.277Z,79.20
2017-07-29T15:43:09.697Z,79.10
2017-07-29T15:45:42.840Z,78.90
2017-07-29T15:48:13.877Z,78.90
2017-07-29T15:50:44.469Z,78.90
2017-07-29T15:53:14.845Z,79.10
2017-07-29T15:55:45.176Z,79.10
2017-07-29T15:58:15.444Z,79.00
2017-07-29T16:00:45.997Z,78.80
2017-07-29T16:03:16.914Z,79.00
2017-07-29T16:05:47.400Z,79.00
2017-07-29T16:08:17.459Z,79.20
2017-07-29T16:10:49.344Z,79.70
2017-07-29T16:13:19.840Z,79.60
2017-07-29T16:15:50.220Z,79.90
2017-07-29T16:18:20.565Z,80.10
2017-07-29T16:20:52.668Z,80.30
2017-07-29T16:23:26.778Z,79.70
2017-07-29T16:25:59.717Z,79.00
2017-07-29T16:28:34.646Z,78.80
2017-07-29T16:31:05.490Z,78.30
2017-07-29T16:33:35.872Z,77.80
2017-07-29T16:36:06.928Z,76.80
2017-07-29T16:38:37.386Z,76.70
2017-07-29T16:41:07.948Z,76.60
2017-07-29T16:43:38.271Z,76.30
2017-07-29T16:46:08.652Z,75.90
2017-07-29T16:48:39.027Z,75.70
2017-07-29T16:51:09.498Z,75.50
2017-07-29T16:53:39.924Z,75.50
2017-07-29T16:56:10.461Z,75.50
2017-07-29T16:58:43.518Z,75.00
2017-07-29T17:01:14.830Z,74.90
2017-07-29T17:03:45.604Z,75.00
2017-07-29T17:06:16.776Z,75.00
2017-07-29T17:08:47.253Z,75.20
2017-07-29T17:11:17.545Z,75.20
2017-07-29T17:13:48.057Z,75.30
2017-07-29T17:16:19.092Z,75.40
2017-07-29T17:18:49.546Z,75.30
2017-07-29T17:21:20.070Z,75.50
2017-07-29T17:23:51.352Z,75.50
2017-07-29T17:26:22.573Z,75.60
2017-07-29T17:28:54.358Z,75.40
2017-07-29T17:31:28.159Z,75.30
2017-07-29T17:33:58.563Z,75.20
2017-07-29T17:36:28.904Z,75.10
2017-07-29T17:38:59.589Z,75.00
2017-07-29T17:41:29.787Z,75.10
2017-07-29T17:44:00.962Z,75.00
2017-07-29T17:46:35.280Z,74.90
2017-07-29T17:49:06.713Z,74.70
2017-07-29T17:51:40.821Z,74.80
2017-07-29T17:54:12.854Z,75.00
2017-07-29T17:56:45.383Z,75.00
2017-07-29T17:59:17.398Z,75.20
2017-07-29T18:01:48.785Z,75.30
2017-07-29T18:06:55.809Z,75.60
2017-07-29T18:09:26.269Z,75.50
2017-07-29T18:11:56.525Z,76.00
2017-07-29T18:14:26.910Z,76.80
2017-07-29T18:16:57.092Z,77.70
2017-07-29T18:19:27.559Z,78.20
2017-07-29T18:21:58.057Z,78.50
2017-07-29T18:24:28.326Z,78.70
2017-07-29T18:26:58.910Z,78.60
2017-07-29T18:29:29.288Z,78.10
2017-07-29T18:31:59.641Z,77.60
2017-07-29T18:34:32.804Z,77.30
2017-07-29T18:37:03.886Z,77.00
2017-07-29T18:39:35.425Z,76.80
2017-07-29T18:42:07.701Z,76.30
2017-07-29T18:44:38.386Z,75.80
2017-07-29T18:47:08.641Z,75.70
2017-07-29T18:49:38.867Z,75.50
2017-07-29T18:52:09.184Z,76.10
2017-07-29T18:54:39.613Z,77.20
2017-07-29T18:57:10.204Z,77.50
2017-07-29T18:59:40.730Z,77.80
2017-07-29T19:02:11.026Z,77.70
2017-07-29T19:04:41.565Z,77.30
2017-07-29T19:07:12.655Z,77.10
2017-07-29T19:09:44.889Z,76.50
2017-07-29T19:12:17.590Z,76.40
2017-07-29T19:14:48.996Z,76.30
2017-07-29T19:17:19.407Z,76.60
2017-07-29T19:19:49.647Z,76.80
2017-07-29T19:22:21.570Z,77.60
2017-07-29T19:24:55.368Z,78.00
2017-07-29T19:27:27.404Z,78.80
2017-07-29T19:30:03.665Z,79.50
2017-07-29T19:32:35.201Z,79.80
2017-07-29T19:35:12.227Z,80.00
2017-07-29T19:37:44.560Z,80.70
2017-07-29T19:40:17.337Z,81.20
2017-07-29T19:42:47.872Z,81.40
2017-07-29T19:45:20.613Z,81.00
2017-07-29T19:47:53.892Z,80.30
2017-07-29T19:50:25.116Z,80.00
2017-07-29T19:52:57.604Z,79.10
2017-07-29T19:55:28.033Z,78.40
2017-07-29T19:57:58.360Z,78.70
2017-07-29T20:00:33.281Z,79.30
2017-07-29T20:03:04.432Z,79.40
2017-07-29T20:05:36.663Z,79.50
2017-07-29T20:08:07.659Z,79.80
2017-07-29T20:10:37.925Z,80.20
2017-07-29T20:13:08.881Z,79.80
2017-07-29T20:15:39.160Z,79.70
2017-07-29T20:18:09.628Z,79.20
2017-07-29T20:20:40.156Z,78.10
2017-07-29T20:23:10.541Z,77.40
2017-07-29T20:25:40.862Z,77.00
2017-07-29T20:28:11.034Z,77.00
2017-07-29T20:30:41.142Z,77.70
2017-07-29T20:33:12.016Z,79.40
2017-07-29T20:35:42.398Z,79.30
2017-07-29T20:38:12.852Z,80.90
2017-07-29T20:40:43.027Z,81.40
2017-07-29T20:43:14.354Z,81.50
2017-07-29T20:45:44.748Z,81.40
2017-07-29T20:48:17.387Z,80.60
2017-07-29T20:50:50.107Z,80.30
2017-07-29T20:53:21.056Z,80.50
2017-07-29T20:55:54.395Z,80.30
2017-07-29T20:58:26.956Z,80.10
2017-07-29T21:00:59.718Z,79.50
2017-07-29T21:03:30.306Z,79.40
2017-07-29T21:06:00.779Z,79.70
2017-07-29T21:08:31.154Z,80.30
2017-07-29T21:11:01.511Z,80.70
2017-07-29T21:13:31.689Z,81.10
2017-07-29T21:16:02.184Z,81.30
2017-07-29T21:18:32.558Z,81.60
2017-07-29T21:21:03.019Z,81.40
2017-07-29T21:23:34.006Z,82.00
2017-07-29T21:26:04.433Z,81.30
2017-07-29T21:28:34.993Z,81.80
2017-07-29T21:31:05.267Z,81.80
2017-07-29T21:33:35.629Z,81.50
2017-07-29T21:36:06.019Z,81.10
2017-07-29T21:38:36.280Z,80.10
2017-07-29T21:41:06.616Z,79.30
2017-07-29T21:43:36.850Z,79.30
2017-07-29T21:46:07.128Z,79.50
2017-07-29T21:48:37.396Z,78.90
2017-07-29T21:51:07.766Z,78.10
2017-07-29T21:53:37.983Z,78.30
2017-07-29T21:56:09.120Z,76.30
2017-07-29T21:58:40.295Z,76.00
2017-07-29T22:01:10.800Z,75.80
2017-07-29T22:03:41.867Z,77.60
2017-07-29T22:06:12.680Z,77.60
2017-07-29T22:08:43.763Z,80.30
2017-07-29T22:11:15.036Z,79.90
2017-07-29T22:13:45.387Z,79.70
2017-07-29T22:16:15.655Z,79.50
2017-07-29T22:18:45.989Z,79.10
2017-07-29T22:21:17.558Z,79.20
2017-07-29T22:23:51.474Z,79.20
2017-07-29T22:26:25.563Z,79.90
2017-07-29T22:28:56.616Z,79.30
2017-07-29T22:31:27.117Z,79.90
2017-07-29T22:33:57.664Z,80.30
2017-07-29T22:36:28.063Z,80.70
2017-07-29T22:38:59.128Z,81.00
2017-07-29T22:41:29.517Z,81.00
2017-07-29T22:43:59.971Z,81.50
2017-07-29T22:46:31.108Z,81.90
2017-07-29T22:49:01.452Z,81.90
2017-07-29T22:51:32.044Z,81.40
2017-07-29T22:54:02.471Z,80.20
2017-07-29T22:56:32.725Z,80.30
2017-07-29T22:59:04.051Z,79.90
2017-07-29T23:01:34.362Z,79.90
2017-07-29T23:04:04.780Z,80.20
2017-07-29T23:06:38.734Z,80.30
2017-07-29T23:09:11.321Z,81.00
2017-07-29T23:11:42.702Z,81.80
2017-07-29T23:14:14.414Z,81.80
2017-07-29T23:16:45.396Z,81.80
2017-07-29T23:19:15.967Z,81.90
2017-07-29T23:21:46.088Z,82.50
2017-07-29T23:24:16.435Z,82.30
2017-07-29T23:26:47.041Z,82.60
2017-07-29T23:29:17.436Z,82.70
2017-07-29T23:31:47.617Z,82.60
2017-07-29T23:34:24.281Z,82.30
2017-07-29T23:36:56.757Z,82.20
2017-07-29T23:39:27.968Z,82.00
2017-07-29T23:41:59.315Z,82.20
2017-07-29T23:44:29.766Z,81.90
2017-07-29T23:47:01.168Z,82.00
2017-07-29T23:49:32.896Z,82.10
2017-07-29T23:52:03.848Z,81.70
2017-07-29T23:54:35.925Z,80.00
2017-07-29T23:57:07.251Z,78.60
2017-07-29T23:59:38.265Z,78.60
